Time;durP1;ratioP1;P1;durP2;ratioP2;P2;SDS_P1;SDS_P2;PMS_P1;PMS_P2;Temp;Humidity;BMP_temperature;BMP_pressure;BME280_temperature;BME280_humidity;BME280_pressure;Samples;Min_cycle;Max_cycle;Signal;HPM_P1;HPM_P2
2023/06/15 00:01:40;;;;;;;8.43;3.00;;;;;;;;;;4996665;28;20049;-90
2023/06/15 00:04:06;;;;;;;9.50;2.85;;;;;;;;;;4984916;28;20066;-89
2023/06/15 00:06:33;;;;;;;8.90;3.17;;;;;;;;;;4968231;28;20052;-90
2023/06/15 00:08:59;;;;;;;6.97;3.20;;;;;;;;;;4983891;28;20065;-90
2023/06/15 00:11:25;;;;;;;8.02;3.70;;;;;;;;;;4983609;28;20098;-90
2023/06/15 00:13:52;;;;;;;7.82;3.35;;;;;;;;;;4983574;28;20046;-90
2023/06/15 00:16:18;;;;;;;4.10;3.05;;;;;;;;;;4983445;28;20077;-89
2023/06/15 00:18:48;;;;;;;9.80;3.42;;;;;;;;;;4968047;28;20046;-89
2023/06/15 00:21:17;;;;;;;7.80;3.15;;;;;;;;;;4983532;28;20053;-90
2023/06/15 00:23:45;;;;;;;6.70;3.47;;;;;;;;;;4981286;28;20054;-88
2023/06/15 00:26:11;;;;;;;8.95;3.42;;;;;;;;;;4983359;28;20074;-89
2023/06/15 00:28:37;;;;;;;9.23;3.50;;;;;;;;;;4975046;28;20050;-90
2023/06/15 00:31:03;;;;;;;6.60;3.50;;;;;;;;;;4982930;28;20095;-90
2023/06/15 00:33:29;;;;;;;5.45;3.40;;;;;;;;;;4971130;28;20564;-89
2023/06/15 00:35:55;;;;;;;6.88;3.40;;;;;;;;;;4987899;28;20099;-89
2023/06/15 00:38:21;;;;;;;10.75;3.70;;;;;;;;;;4985135;28;20104;-89
2023/06/15 00:40:48;;;;;;;8.98;3.40;;;;;;;;;;4986424;28;20042;-90
2023/06/15 00:43:14;;;;;;;5.93;3.33;;;;;;;;;;4968629;28;20490;-89
2023/06/15 00:45:40;;;;;;;8.70;3.55;;;;;;;;;;4984536;28;20075;-89
2023/06/15 00:48:06;;;;;;;5.38;3.28;;;;;;;;;;4985432;28;20468;-89
2023/06/15 00:50:33;;;;;;;6.95;3.58;;;;;;;;;;4970864;28;20042;-88
2023/06/15 00:53:03;;;;;;;11.95;3.75;;;;;;;;;;4986064;28;20137;-89
2023/06/15 00:55:30;;;;;;;6.50;4.00;;;;;;;;;;4968084;28;20070;-89
2023/06/15 00:57:56;;;;;;;8.38;4.18;;;;;;;;;;4968657;28;20516;-90
2023/06/15 01:00:22;;;;;;;7.00;4.15;;;;;;;;;;4988374;28;20045;-90
2023/06/15 01:02:48;;;;;;;7.35;4.20;;;;;;;;;;4987268;28;20364;-88
2023/06/15 01:05:17;;;;;;;8.70;4.10;;;;;;;;;;4985092;28;20117;-88
2023/06/15 01:07:48;;;;;;;11.50;4.57;;;;;;;;;;4986532;28;20050;-90
2023/06/15 01:10:16;;;;;;;8.45;4.10;;;;;;;;;;4970059;28;20054;-89
2023/06/15 01:12:45;;;;;;;8.85;4.75;;;;;;;;;;4987232;28;20046;-89
2023/06/15 01:15:11;;;;;;;9.10;4.47;;;;;;;;;;4969446;28;20571;-90
2023/06/15 01:17:44;;;;;;;8.10;4.70;;;;;;;;;;4987682;28;20061;-88
2023/06/15 01:20:16;;;;;;;9.48;4.55;;;;;;;;;;4987113;28;20070;-89
2023/06/15 01:23:01;;;;;;;11.85;5.13;;;;;;;;;;4969209;28;20604;-90
2023/06/15 01:25:37;;;;;;;10.52;5.05;;;;;;;;;;4968112;28;20095;-89
2023/06/15 01:28:05;;;;;;;7.95;4.97;;;;;;;;;;4970713;28;20099;-90
2023/06/15 01:30:44;;;;;;;7.28;4.53;;;;;;;;;;4988303;28;20486;-90
2023/06/15 01:33:14;;;;;;;10.25;5.13;;;;;;;;;;4972136;28;20050;-90
2023/06/15 01:35:41;;;;;;;13.05;5.30;;;;;;;;;;4986524;28;20117;-90
2023/06/15 01:38:08;;;;;;;9.45;5.05;;;;;;;;;;4971308;28;20132;-90
2023/06/15 01:40:36;;;;;;;8.60;5.20;;;;;;;;;;4956034;28;20519;-90
2023/06/15 01:43:02;;;;;;;;;;;;;;;;;;4986320;28;20114;-90
2023/06/15 01:45:30;;;;;;;8.55;5.28;;;;;;;;;;4965584;28;20451;-89
2023/06/15 01:47:56;;;;;;;7.85;5.25;;;;;;;;;;4966258;28;20424;-89
2023/06/15 01:50:23;;;;;;;10.85;5.20;;;;;;;;;;4969674;28;20047;-90
2023/06/15 01:52:49;;;;;;;8.48;5.97;;;;;;;;;;4968808;28;20059;-89
2023/06/15 01:55:15;;;;;;;9.40;5.38;;;;;;;;;;4984460;28;20560;-91
2023/06/15 01:57:42;;;;;;;9.07;5.10;;;;;;;;;;4985575;28;20047;-90
2023/06/15 02:00:10;;;;;;;11.00;5.85;;;;;;;;;;4969715;28;20047;-90
2023/06/15 02:02:37;;;;;;;8.27;5.20;;;;;;;;;;4969871;28;20099;-91
2023/06/15 02:05:05;;;;;;;10.32;5.10;;;;;;;;;;4984556;28;20514;-91
2023/06/15 02:07:32;;;;;;;12.90;5.78;;;;;;;;;;4986286;28;20121;-91
2023/06/15 02:09:58;;;;;;;8.68;5.28;;;;;;;;;;4969203;28;20122;-91
2023/06/15 02:12:24;;;;;;;9.30;5.35;;;;;;;;;;4985876;28;20045;-91
2023/06/15 02:14:50;;;;;;;13.05;5.70;;;;;;;;;;4984105;28;20502;-92
2023/06/15 02:17:17;;;;;;;12.02;6.32;;;;;;;;;;4969484;28;20060;-91
2023/06/15 02:19:46;;;;;;;13.45;6.10;;;;;;;;;;4969767;28;20701;-91
2023/06/15 02:22:15;;;;;;;10.25;5.63;;;;;;;;;;4968560;28;20046;-90
2023/06/15 02:25:09;;;;;;;10.57;6.07;;;;;;;;;;4980087;28;20104;-90
2023/06/15 02:27:35;;;;;;;15.13;6.43;;;;;;;;;;4985623;28;20533;-90
2023/06/15 02:30:01;;;;;;;12.25;6.20;;;;;;;;;;4969358;28;20050;-89
2023/06/15 02:32:34;;;;;;;11.88;6.03;;;;;;;;;;4985054;28;20046;-91
2023/06/15 02:35:01;;;;;;;9.98;5.80;;;;;;;;;;4961472;28;20046;-90
2023/06/15 02:37:27;;;;;;;12.48;5.90;;;;;;;;;;4953691;28;20046;-90
2023/06/15 02:39:53;;;;;;;15.90;6.55;;;;;;;;;;4965762;28;20409;-89
2023/06/15 02:42:19;;;;;;;12.07;6.93;;;;;;;;;;4967174;28;20073;-90
2023/06/15 02:44:46;;;;;;;13.15;5.50;;;;;;;;;;4985265;28;20549;-89
2023/06/15 02:47:12;;;;;;;12.57;5.78;;;;;;;;;;4970026;28;20133;-90
2023/06/15 02:49:38;;;;;;;13.30;5.18;;;;;;;;;;4985127;28;20042;-90
2023/06/15 02:52:04;;;;;;;12.88;5.45;;;;;;;;;;4984586;28;20069;-90
2023/06/15 02:54:31;;;;;;;9.75;5.32;;;;;;;;;;4984511;28;20054;-90
2023/06/15 02:56:57;;;;;;;11.68;5.07;;;;;;;;;;4969439;28;20050;-89
2023/06/15 02:59:25;;;;;;;9.73;5.40;;;;;;;;;;4985131;28;20458;-91
2023/06/15 03:01:54;;;;;;;8.60;5.75;;;;;;;;;;4984794;28;20715;-90
2023/06/15 03:04:23;;;;;;;10.18;5.30;;;;;;;;;;4968993;28;20046;-90
2023/06/15 03:06:50;;;;;;;11.13;5.53;;;;;;;;;;4985800;28;20121;-91
2023/06/15 03:09:19;;;;;;;8.98;5.63;;;;;;;;;;4983801;28;20151;-90
2023/06/15 03:11:45;;;;;;;9.65;5.40;;;;;;;;;;4967907;28;20116;-91
2023/06/15 03:14:11;;;;;;;10.90;5.75;;;;;;;;;;4969352;28;20070;-91
2023/06/15 03:16:41;;;;;;;10.40;5.60;;;;;;;;;;4986351;28;20473;-90
2023/06/15 03:19:07;;;;;;;10.10;5.25;;;;;;;;;;4984822;28;20051;-89
2023/06/15 03:21:33;;;;;;;10.38;5.38;;;;;;;;;;4968274;28;20111;-90
2023/06/15 03:23:59;;;;;;;13.38;5.68;;;;;;;;;;4981246;28;20106;-90
2023/06/15 03:26:29;;;;;;;10.35;6.30;;;;;;;;;;4977079;28;20458;-88
2023/06/15 03:28:57;;;;;;;13.00;5.18;;;;;;;;;;4957940;28;20034;-90
2023/06/15 03:31:23;;;;;;;9.20;5.85;;;;;;;;;;4985146;28;20054;-91
2023/06/15 03:33:49;;;;;;;15.00;5.80;;;;;;;;;;4967637;28;20087;-90
2023/06/15 03:36:16;;;;;;;27.85;6.63;;;;;;;;;;4986010;28;20085;-89
2023/06/15 03:38:42;;;;;;;14.13;5.78;;;;;;;;;;4983428;28;20050;-90
2023/06/15 03:41:08;;;;;;;17.33;6.03;;;;;;;;;;4967981;28;20039;-88
2023/06/15 03:43:37;;;;;;;10.38;5.35;;;;;;;;;;4983946;28;20058;-89
2023/06/15 03:46:03;;;;;;;;;;;;;;;;;;4968878;28;20042;-89
2023/06/15 03:48:29;;;;;;;15.98;5.85;;;;;;;;;;4968614;28;19930;-89
2023/06/15 03:50:56;;;;;;;9.40;5.72;;;;;;;;;;4985168;28;20099;-91
2023/06/15 03:53:22;;;;;;;11.70;6.13;;;;;;;;;;4984010;28;20050;-88
2023/06/15 03:55:48;;;;;;;13.88;6.03;;;;;;;;;;4966367;28;20049;-89
2023/06/15 03:58:14;;;;;;;10.32;5.65;;;;;;;;;;4983382;28;20035;-88
2023/06/15 04:00:43;;;;;;;11.02;6.15;;;;;;;;;;4984784;28;20134;-90
2023/06/15 04:03:09;;;;;;;13.23;6.28;;;;;;;;;;4967942;28;20049;-89
2023/06/15 04:05:36;;;;;;;12.93;7.32;;;;;;;;;;4982305;28;20038;-89
2023/06/15 04:08:02;;;;;;;12.35;6.80;;;;;;;;;;4966983;28;20057;-89
2023/06/15 04:10:30;;;;;;;23.00;7.00;;;;;;;;;;4970873;28;20043;-89
2023/06/15 04:12:56;;;;;;;11.27;6.30;;;;;;;;;;4954808;28;20242;-89
2023/06/15 04:15:22;;;;;;;17.98;6.90;;;;;;;;;;4986849;28;20046;-89
2023/06/15 04:17:48;;;;;;;13.52;6.55;;;;;;;;;;4986105;28;20133;-91
2023/06/15 04:20:15;;;;;;;8.80;6.28;;;;;;;;;;4983209;28;20505;-90
2023/06/15 04:22:41;;;;;;;17.35;6.63;;;;;;;;;;4983360;28;20050;-90
2023/06/15 04:25:08;;;;;;;12.65;6.20;;;;;;;;;;4982632;28;20455;-89
2023/06/15 04:27:35;;;;;;;7.57;6.47;;;;;;;;;;4976386;28;20096;-89
2023/06/15 04:30:01;;;;;;;12.20;6.65;;;;;;;;;;4980441;28;20602;-89
2023/06/15 04:32:30;;;;;;;11.82;6.63;;;;;;;;;;4984148;28;20137;-89
2023/06/15 04:35:18;;;;;;;12.05;6.45;;;;;;;;;;4979136;28;20341;-90
2023/06/15 04:37:45;;;;;;;11.88;7.00;;;;;;;;;;4976460;28;20048;-89
2023/06/15 04:40:12;;;;;;;10.38;6.40;;;;;;;;;;4977963;28;20046;-90
2023/06/15 04:42:40;;;;;;;11.95;6.63;;;;;;;;;;4976829;28;20131;-90
2023/06/15 04:45:23;;;;;;;12.30;7.22;;;;;;;;;;4979480;28;20042;-91
2023/06/15 04:47:49;;;;;;;13.55;6.50;;;;;;;;;;4983136;28;20046;-90
2023/06/15 04:50:15;;;;;;;10.95;6.55;;;;;;;;;;4975184;28;20473;-90
2023/06/15 04:52:42;;;;;;;14.18;7.10;;;;;;;;;;5001083;28;20413;-90
2023/06/15 04:55:15;;;;;;;9.57;6.60;;;;;;;;;;4964823;28;20763;-91
2023/06/15 04:57:41;;;;;;;13.40;7.18;;;;;;;;;;4965207;28;20171;-90
2023/06/15 05:00:09;;;;;;;15.27;7.15;;;;;;;;;;4975288;28;20047;-90
2023/06/15 05:02:35;;;;;;;;;;;;;;;;;;4972790;28;20514;-90
2023/06/15 05:05:02;;;;;;;10.23;6.50;;;;;;;;;;4967398;28;20016;-89
2023/06/15 05:07:28;;;;;;;12.02;6.30;;;;;;;;;;4983929;28;20093;-89
2023/06/15 05:09:55;;;;;;;11.88;6.65;;;;;;;;;;4978045;28;20042;-89
2023/06/15 05:12:21;;;;;;;11.25;6.40;;;;;;;;;;4986424;28;20058;-90
2023/06/15 05:14:47;;;;;;;10.50;6.35;;;;;;;;;;4976347;28;20334;-91
2023/06/15 05:17:13;;;;;;;14.30;6.88;;;;;;;;;;5000157;28;20358;-90
2023/06/15 05:19:39;;;;;;;11.80;6.05;;;;;;;;;;4970379;28;20043;-90
2023/06/15 05:22:05;;;;;;;9.68;6.25;;;;;;;;;;4969459;28;20046;-89
2023/06/15 05:24:32;;;;;;;8.00;5.97;;;;;;;;;;4983459;28;20046;-91
2023/06/15 05:26:58;;;;;;;9.30;6.20;;;;;;;;;;4985434;28;20053;-91
2023/06/15 05:29:24;;;;;;;9.02;5.82;;;;;;;;;;4968103;28;20489;-90
2023/06/15 05:31:50;;;;;;;12.05;6.57;;;;;;;;;;4971531;28;20050;-90
2023/06/15 05:34:17;;;;;;;8.23;6.72;;;;;;;;;;4969291;28;20517;-90
2023/06/15 05:36:43;;;;;;;14.68;6.88;;;;;;;;;;4976165;28;20062;-89
2023/06/15 05:39:10;;;;;;;13.63;7.13;;;;;;;;;;4973936;28;20038;-90
2023/06/15 05:41:36;;;;;;;13.80;6.72;;;;;;;;;;4983495;28;20077;-90
2023/06/15 05:44:02;;;;;;;8.15;5.85;;;;;;;;;;4995978;28;20096;-90
2023/06/15 05:46:28;;;;;;;16.73;6.70;;;;;;;;;;4981162;28;20511;-91
2023/06/15 05:48:54;;;;;;;11.45;6.18;;;;;;;;;;4972398;28;20072;-91
2023/06/15 05:51:20;;;;;;;10.68;6.10;;;;;;;;;;4985655;28;20058;-90
2023/06/15 05:53:46;;;;;;;9.63;5.80;;;;;;;;;;4965824;28;20055;-89
2023/06/15 05:56:12;;;;;;;11.25;5.28;;;;;;;;;;4986705;28;20065;-90
2023/06/15 05:58:38;;;;;;;10.10;5.03;;;;;;;;;;5004304;28;20496;-89
2023/06/15 06:01:05;;;;;;;9.98;5.43;;;;;;;;;;4971600;28;20050;-90
2023/06/15 06:03:31;;;;;;;7.32;4.75;;;;;;;;;;4987425;28;20046;-89
2023/06/15 06:05:57;;;;;;;10.25;4.63;;;;;;;;;;4971688;28;20050;-89
2023/06/15 06:08:23;;;;;;;12.68;3.80;;;;;;;;;;4986236;28;20103;-89
2023/06/15 06:10:49;;;;;;;7.35;4.00;;;;;;;;;;4986334;28;20042;-89
2023/06/15 06:13:16;;;;;;;7.88;3.90;;;;;;;;;;4985626;28;20053;-90
2023/06/15 06:15:42;;;;;;;6.18;3.75;;;;;;;;;;4969701;28;20069;-90
2023/06/15 06:18:08;;;;;;;8.73;3.70;;;;;;;;;;4979928;28;20615;-90
2023/06/15 06:20:35;;;;;;;10.32;3.38;;;;;;;;;;4985837;28;20052;-90
2023/06/15 06:23:03;;;;;;;10.50;3.30;;;;;;;;;;4985630;28;20084;-88
2023/06/15 06:25:29;;;;;;;7.23;3.20;;;;;;;;;;4985208;28;20125;-90
2023/06/15 06:27:55;;;;;;;7.55;3.47;;;;;;;;;;4985284;28;20377;-89
2023/06/15 06:30:21;;;;;;;5.53;3.20;;;;;;;;;;4969540;28;20046;-90
2023/06/15 06:32:47;;;;;;;10.27;3.38;;;;;;;;;;4968584;28;20548;-89
2023/06/15 06:35:13;;;;;;;12.00;3.65;;;;;;;;;;4985554;28;20078;-90
2023/06/15 06:37:39;;;;;;;5.85;3.15;;;;;;;;;;4969698;28;20046;-89
2023/06/15 06:40:06;;;;;;;7.57;3.58;;;;;;;;;;4985728;28;20133;-89
2023/06/15 06:42:32;;;;;;;14.05;3.60;;;;;;;;;;4984492;28;20050;-91
2023/06/15 06:44:58;;;;;;;8.57;3.20;;;;;;;;;;4969413;28;20493;-90
2023/06/15 06:47:24;;;;;;;9.73;3.40;;;;;;;;;;4985170;28;20049;-89
2023/06/15 06:49:50;;;;;;;9.98;3.17;;;;;;;;;;4985820;28;20350;-91
2023/06/15 06:52:16;;;;;;;7.97;3.20;;;;;;;;;;4985326;28;20292;-91
2023/06/15 06:54:42;;;;;;;7.53;3.20;;;;;;;;;;4969069;28;20053;-90
2023/06/15 06:57:25;;;;;;;6.05;3.03;;;;;;;;;;4970280;28;20231;-90
2023/06/15 06:59:57;;;;;;;7.28;3.22;;;;;;;;;;4986692;28;20269;-89
2023/06/15 07:02:23;;;;;;;8.35;3.13;;;;;;;;;;4968284;28;20086;-90
2023/06/15 07:04:49;;;;;;;6.22;3.15;;;;;;;;;;4968317;28;20085;-90
2023/06/15 07:07:15;;;;;;;7.15;3.13;;;;;;;;;;4968820;28;20045;-92
2023/06/15 07:09:41;;;;;;;5.43;2.80;;;;;;;;;;4969323;28;20050;-92
2023/06/15 07:12:07;;;;;;;5.68;3.05;;;;;;;;;;4983384;28;20046;-88
2023/06/15 07:14:33;;;;;;;5.50;3.00;;;;;;;;;;4970705;28;20049;-91
2023/06/15 07:16:59;;;;;;;6.03;3.08;;;;;;;;;;4986538;28;20046;-91
2023/06/15 07:19:25;;;;;;;8.10;3.50;;;;;;;;;;4969985;28;20038;-90
2023/06/15 07:21:51;;;;;;;7.95;3.17;;;;;;;;;;4970041;28;20049;-90
2023/06/15 07:24:17;;;;;;;8.45;3.42;;;;;;;;;;4988104;28;20026;-90
2023/06/15 07:26:43;;;;;;;8.88;3.08;;;;;;;;;;4985501;28;20073;-91
2023/06/15 07:29:09;;;;;;;5.72;3.25;;;;;;;;;;4970933;28;20135;-91
2023/06/15 07:31:35;;;;;;;6.45;3.40;;;;;;;;;;4972039;28;20088;-91
2023/06/15 07:34:02;;;;;;;8.95;3.25;;;;;;;;;;4971521;28;20450;-91
2023/06/15 07:36:28;;;;;;;13.13;3.60;;;;;;;;;;4968338;28;20092;-93
2023/06/15 07:38:54;;;;;;;7.30;3.95;;;;;;;;;;4967893;28;20046;-90
2023/06/15 07:41:21;;;;;;;9.23;4.00;;;;;;;;;;4968396;28;20042;-92
2023/06/15 07:43:47;;;;;;;13.48;4.88;;;;;;;;;;4985432;28;20141;-92
2023/06/15 07:46:13;;;;;;;8.65;3.97;;;;;;;;;;4968233;28;20129;-91
2023/06/15 07:48:41;;;;;;;8.80;4.55;;;;;;;;;;4968117;28;20057;-91
2023/06/15 07:51:07;;;;;;;10.95;3.78;;;;;;;;;;4984222;28;20042;-91
2023/06/15 07:53:33;;;;;;;5.65;3.50;;;;;;;;;;4969742;28;20050;-92
2023/06/15 07:55:59;;;;;;;7.75;2.80;;;;;;;;;;4982280;28;20118;-92
2023/06/15 07:58:28;;;;;;;6.72;3.28;;;;;;;;;;4987377;28;20039;-92
2023/06/15 08:00:56;;;;;;;5.10;2.60;;;;;;;;;;4965453;28;20126;-86
2023/06/15 08:03:22;;;;;;;11.13;2.33;;;;;;;;;;4962930;28;20042;-88
2023/06/15 08:05:48;;;;;;;4.72;2.70;;;;;;;;;;4959137;28;20543;-87
2023/06/15 08:08:15;;;;;;;7.50;2.50;;;;;;;;;;4965310;28;20096;-88
2023/06/15 08:10:41;;;;;;;11.68;2.85;;;;;;;;;;4986577;28;20475;-87
2023/06/15 08:13:07;;;;;;;8.15;2.75;;;;;;;;;;4962235;28;20058;-87
2023/06/15 08:15:33;;;;;;;10.25;2.90;;;;;;;;;;4977519;28;20073;-87
2023/06/15 08:18:00;;;;;;;6.78;2.78;;;;;;;;;;4956114;28;20102;-88
2023/06/15 08:20:26;;;;;;;8.52;2.80;;;;;;;;;;4963238;28;20235;-87
2023/06/15 08:22:52;;;;;;;8.43;2.72;;;;;;;;;;4974601;28;20060;-88
2023/06/15 08:25:38;;;;;;;9.73;2.90;;;;;;;;;;4958165;28;20042;-87
2023/06/15 08:28:30;;;;;;;6.82;2.70;;;;;;;;;;4978100;28;20107;-87
2023/06/15 08:30:56;;;;;;;6.47;2.60;;;;;;;;;;4942863;28;20077;-87
2023/06/15 08:33:26;;;;;;;6.78;2.53;;;;;;;;;;4923809;28;20744;-86
2023/06/15 08:35:52;;;;;;;6.53;3.20;;;;;;;;;;4951011;28;20053;-87
2023/06/15 08:38:18;;;;;;;5.60;2.40;;;;;;;;;;4934134;28;20065;-87
2023/06/15 08:41:06;;;;;;;7.85;2.60;;;;;;;;;;4954966;28;20046;-87
2023/06/15 08:43:53;;;;;;;3.97;2.25;;;;;;;;;;5037562;28;20091;-89
2023/06/15 08:46:19;;;;;;;11.48;2.80;;;;;;;;;;4932801;28;20054;-87
2023/06/15 08:48:46;;;;;;;8.30;3.05;;;;;;;;;;4958335;28;20415;-88
2023/06/15 08:51:12;;;;;;;5.10;2.63;;;;;;;;;;4955619;28;20043;-87
2023/06/15 08:53:40;;;;;;;6.53;2.13;;;;;;;;;;4960569;28;20684;-88
2023/06/15 08:56:11;;;;;;;7.50;2.50;;;;;;;;;;4936458;28;20058;-88
2023/06/15 08:58:37;;;;;;;4.57;2.60;;;;;;;;;;4945234;28;20534;-89
2023/06/15 09:01:10;;;;;;;6.03;2.30;;;;;;;;;;4967508;28;20320;-86
2023/06/15 09:03:36;;;;;;;6.13;2.53;;;;;;;;;;4962235;28;20050;-86
2023/06/15 09:06:03;;;;;;;4.15;2.42;;;;;;;;;;4972040;28;20447;-87
2023/06/15 09:08:30;;;;;;;5.03;2.17;;;;;;;;;;4961154;28;20506;-86
2023/06/15 09:11:06;;;;;;;7.13;2.22;;;;;;;;;;4979081;28;20046;-90
2023/06/15 09:13:35;;;;;;;7.05;2.28;;;;;;;;;;4976627;28;20048;-88
2023/06/15 09:16:02;;;;;;;4.43;2.28;;;;;;;;;;4987485;28;20067;-89
2023/06/15 09:18:28;;;;;;;5.40;2.50;;;;;;;;;;4960474;28;20049;-88
2023/06/15 09:20:59;;;;;;;8.80;2.50;;;;;;;;;;4977464;28;20054;-87
2023/06/15 09:23:25;;;;;;;6.30;2.30;;;;;;;;;;4963561;28;20046;-88
2023/06/15 09:25:52;;;;;;;6.13;2.30;;;;;;;;;;4964276;28;20045;-88
2023/06/15 09:28:25;;;;;;;6.70;2.37;;;;;;;;;;4962592;28;20409;-87
2023/06/15 09:31:04;;;;;;;10.07;2.55;;;;;;;;;;4966056;28;20084;-87
2023/06/15 09:33:31;;;;;;;7.90;2.40;;;;;;;;;;4976942;28;20225;-88
2023/06/15 09:35:57;;;;;;;7.70;2.75;;;;;;;;;;4963188;28;20139;-87
2023/06/15 09:38:24;;;;;;;7.20;2.50;;;;;;;;;;4961791;28;20050;-88
2023/06/15 09:40:50;;;;;;;6.07;2.55;;;;;;;;;;4960057;28;20046;-88
2023/06/15 09:43:18;;;;;;;6.35;2.38;;;;;;;;;;4978107;28;20057;-88
2023/06/15 09:45:51;;;;;;;5.57;2.30;;;;;;;;;;4960331;28;20046;-88
2023/06/15 09:48:17;;;;;;;5.07;2.20;;;;;;;;;;4963802;28;20103;-90
2023/06/15 09:50:43;;;;;;;4.82;2.30;;;;;;;;;;4962437;28;20553;-88
2023/06/15 09:53:12;;;;;;;7.35;2.50;;;;;;;;;;4977933;28;20205;-89
2023/06/15 09:55:44;;;;;;;5.45;2.45;;;;;;;;;;4981621;28;20061;-87
2023/06/15 09:58:10;;;;;;;7.40;2.50;;;;;;;;;;4974156;28;20106;-87
2023/06/15 10:00:37;;;;;;;5.03;2.50;;;;;;;;;;4963847;28;20042;-88
2023/06/15 10:03:08;;;;;;;5.10;2.45;;;;;;;;;;4962453;28;20057;-88
2023/06/15 10:05:37;;;;;;;3.65;2.45;;;;;;;;;;4957763;28;20482;-89
2023/06/15 10:08:07;;;;;;;7.70;2.67;;;;;;;;;;4957688;28;20051;-88
2023/06/15 10:10:34;;;;;;;4.32;2.58;;;;;;;;;;4964432;28;20047;-89
2023/06/15 10:13:01;;;;;;;3.15;2.15;;;;;;;;;;4979130;28;20061;-89
2023/06/15 10:15:28;;;;;;;5.50;2.30;;;;;;;;;;4979372;28;20045;-88
2023/06/15 10:17:56;;;;;;;10.75;2.60;;;;;;;;;;4981137;28;20096;-88
2023/06/15 10:20:24;;;;;;;6.00;2.40;;;;;;;;;;4965330;28;20042;-87
2023/06/15 10:23:02;;;;;;;7.45;2.67;;;;;;;;;;4962832;28;20034;-89
2023/06/15 10:25:30;;;;;;;4.43;2.40;;;;;;;;;;4982513;28;20088;-90
2023/06/15 10:27:56;;;;;;;6.25;2.83;;;;;;;;;;4965030;28;20050;-92
2023/06/15 10:30:25;;;;;;;6.50;2.42;;;;;;;;;;4984784;28;20122;-92
2023/06/15 10:33:04;;;;;;;5.43;2.60;;;;;;;;;;4985813;28;20424;-87
2023/06/15 10:35:36;;;;;;;5.97;2.38;;;;;;;;;;4983601;28;20050;-90
2023/06/15 10:38:21;;;;;;;7.70;2.28;;;;;;;;;;4985431;28;20129;-87
2023/06/15 10:40:48;;;;;;;7.40;2.40;;;;;;;;;;4967364;28;20050;-88
2023/06/15 10:43:18;;;;;;;5.72;2.28;;;;;;;;;;4982395;28;20054;-89
2023/06/15 10:45:44;;;;;;;5.40;2.70;;;;;;;;;;4980366;28;20135;-89
2023/06/15 10:48:19;;;;;;;9.48;2.50;;;;;;;;;;4983853;28;20054;-89
2023/06/15 10:50:50;;;;;;;7.07;2.40;;;;;;;;;;4962874;28;20054;-88
2023/06/15 10:53:23;;;;;;;7.43;2.55;;;;;;;;;;4977823;28;20085;-87
2023/06/15 10:55:52;;;;;;;6.32;2.83;;;;;;;;;;4963108;28;20847;-89
2023/06/15 10:58:19;;;;;;;3.00;2.30;;;;;;;;;;4965928;28;20452;-88
2023/06/15 11:00:50;;;;;;;6.32;2.20;;;;;;;;;;4964815;28;20528;-88
2023/06/15 11:03:26;;;;;;;5.28;2.58;;;;;;;;;;4964410;28;20062;-88
2023/06/15 11:06:07;;;;;;;11.70;2.60;;;;;;;;;;4977693;28;20077;-87
2023/06/15 11:08:53;;;;;;;11.00;2.47;;;;;;;;;;4981361;28;20558;-89
2023/06/15 11:11:38;;;;;;;3.83;2.33;;;;;;;;;;4958110;28;20058;-89
2023/06/15 11:14:05;;;;;;;3.47;2.08;;;;;;;;;;4958276;28;20082;-88
2023/06/15 11:16:40;;;;;;;7.70;2.58;;;;;;;;;;4962285;28;20482;-87
2023/06/15 11:19:13;;;;;;;8.68;2.42;;;;;;;;;;4958095;28;20078;-87
2023/06/15 11:21:40;;;;;;;3.88;2.70;;;;;;;;;;4962928;28;20129;-90
2023/06/15 11:24:13;;;;;;;6.30;2.20;;;;;;;;;;4943255;28;20422;-90
2023/06/15 11:26:40;;;;;;;4.63;2.13;;;;;;;;;;4971296;28;20060;-88
2023/06/15 11:29:08;;;;;;;4.80;2.58;;;;;;;;;;4978132;28;20056;-87
2023/06/15 11:31:34;;;;;;;5.05;2.20;;;;;;;;;;4965420;28;20082;-89
2023/06/15 11:34:00;;;;;;;4.78;2.42;;;;;;;;;;4977700;28;20351;-87
2023/06/15 11:36:27;;;;;;;10.30;2.50;;;;;;;;;;4961737;28;20050;-88
2023/06/15 11:38:53;;;;;;;6.40;2.58;;;;;;;;;;4976700;28;20350;-89
2023/06/15 11:41:20;;;;;;;5.70;2.35;;;;;;;;;;4964003;28;20692;-88
2023/06/15 11:43:49;;;;;;;8.30;2.47;;;;;;;;;;4965427;28;20056;-88
2023/06/15 11:46:21;;;;;;;3.28;2.22;;;;;;;;;;4961797;28;20394;-87
2023/06/15 11:48:48;;;;;;;5.05;2.30;;;;;;;;;;4963127;28;20134;-89
2023/06/15 11:51:15;;;;;;;4.72;2.22;;;;;;;;;;4959889;28;20402;-88
2023/06/15 11:53:41;;;;;;;7.93;2.83;;;;;;;;;;4961348;28;20259;-88
2023/06/15 11:56:21;;;;;;;5.22;2.22;;;;;;;;;;4987910;28;20070;-89
2023/06/15 11:58:50;;;;;;;4.82;2.28;;;;;;;;;;4962321;28;20129;-86
2023/06/15 12:01:20;;;;;;;4.10;2.30;;;;;;;;;;4944132;28;20046;-90
2023/06/15 12:03:47;;;;;;;10.57;2.30;;;;;;;;;;4960344;28;20046;-87
2023/06/15 12:06:17;;;;;;;5.10;2.60;;;;;;;;;;4961309;28;20066;-87
2023/06/15 12:08:44;;;;;;;4.32;2.30;;;;;;;;;;4960531;28;20076;-87
2023/06/15 12:11:12;;;;;;;5.72;2.30;;;;;;;;;;4962370;28;20451;-87
2023/06/15 12:13:39;;;;;;;8.63;2.40;;;;;;;;;;4940745;28;20047;-87
2023/06/15 12:16:05;;;;;;;6.40;2.40;;;;;;;;;;4958017;28;20561;-87
2023/06/15 12:18:31;;;;;;;8.15;2.58;;;;;;;;;;4958932;28;20056;-88
2023/06/15 12:20:57;;;;;;;7.50;2.35;;;;;;;;;;4962682;28;20047;-89
2023/06/15 12:23:27;;;;;;;5.78;2.30;;;;;;;;;;4960642;28;20054;-88
2023/06/15 12:25:56;;;;;;;4.93;2.30;;;;;;;;;;4984511;28;20050;-88
2023/06/15 12:28:22;;;;;;;4.63;2.30;;;;;;;;;;4961193;28;20403;-88
2023/06/15 12:30:49;;;;;;;4.63;2.40;;;;;;;;;;4961196;28;20048;-88
2023/06/15 12:33:25;;;;;;;4.75;2.45;;;;;;;;;;4959102;28;20074;-89
2023/06/15 12:35:52;;;;;;;3.57;2.57;;;;;;;;;;4959789;28;20057;-90
2023/06/15 12:38:19;;;;;;;6.05;2.40;;;;;;;;;;4960023;28;20057;-88
2023/06/15 12:40:47;;;;;;;4.65;2.45;;;;;;;;;;4962175;28;20057;-89
2023/06/15 12:43:13;;;;;;;4.85;2.40;;;;;;;;;;4961046;28;20085;-88
2023/06/15 12:45:44;;;;;;;6.43;2.28;;;;;;;;;;4959846;28;20668;-90
2023/06/15 12:48:11;;;;;;;5.13;2.60;;;;;;;;;;4964051;28;20058;-87
2023/06/15 12:50:40;;;;;;;8.85;2.50;;;;;;;;;;4962428;28;20058;-88
2023/06/15 12:53:06;;;;;;;7.57;2.50;;;;;;;;;;4961810;28;20141;-88
2023/06/15 12:55:32;;;;;;;5.28;2.55;;;;;;;;;;4960354;28;20095;-88
2023/06/15 12:57:58;;;;;;;4.22;2.38;;;;;;;;;;4973779;28;20064;-88
2023/06/15 13:00:26;;;;;;;6.28;2.53;;;;;;;;;;4979318;28;20573;-90
2023/06/15 13:02:55;;;;;;;6.20;2.50;;;;;;;;;;4963253;28;20402;-87
2023/06/15 13:05:21;;;;;;;4.57;2.30;;;;;;;;;;4978474;28;20047;-89
2023/06/15 13:07:48;;;;;;;7.50;2.38;;;;;;;;;;4977901;28;20050;-90
2023/06/15 13:10:14;;;;;;;6.28;2.28;;;;;;;;;;4955855;28;20320;-87
2023/06/15 13:12:41;;;;;;;4.60;2.20;;;;;;;;;;4977522;28;20046;-89
2023/06/15 13:15:08;;;;;;;8.55;2.70;;;;;;;;;;4962213;28;20058;-87
2023/06/15 13:17:37;;;;;;;7.68;2.25;;;;;;;;;;4963615;28;20046;-88
2023/06/15 13:20:07;;;;;;;13.02;2.80;;;;;;;;;;4976182;28;20062;-88
2023/06/15 13:22:34;;;;;;;6.07;2.13;;;;;;;;;;4991108;28;20700;-88
2023/06/15 13:25:00;;;;;;;8.20;2.60;;;;;;;;;;4963685;28;20525;-88
2023/06/15 13:27:27;;;;;;;3.90;2.80;;;;;;;;;;4959601;28;20128;-89
2023/06/15 13:29:54;;;;;;;5.20;2.50;;;;;;;;;;4975840;28;20054;-87
2023/06/15 13:32:24;;;;;;;5.72;2.80;;;;;;;;;;4965225;28;20294;-89
2023/06/15 13:34:50;;;;;;;10.45;2.72;;;;;;;;;;4974513;28;20148;-88
2023/06/15 13:37:17;;;;;;;9.52;2.65;;;;;;;;;;4979062;28;20125;-88
2023/06/15 13:39:43;;;;;;;4.00;2.50;;;;;;;;;;4962559;28;20448;-88
2023/06/15 13:42:11;;;;;;;6.78;2.78;;;;;;;;;;4963128;28;20038;-87
2023/06/15 13:44:38;;;;;;;;;;;;;;;;;;4965028;28;20054;-88
2023/06/15 13:47:24;;;;;;;7.22;2.58;;;;;;;;;;4965924;28;20365;-89
2023/06/15 13:49:50;;;;;;;8.07;2.92;;;;;;;;;;4964007;28;20066;-88
2023/06/15 13:52:16;;;;;;;10.68;2.67;;;;;;;;;;4964196;28;20538;-88
2023/06/15 13:54:42;;;;;;;6.63;2.72;;;;;;;;;;4964841;28;20088;-87
2023/06/15 13:57:08;;;;;;;5.68;2.88;;;;;;;;;;4979610;28;20482;-90
2023/06/15 13:59:35;;;;;;;4.32;2.25;;;;;;;;;;4979120;28;20517;-88
2023/06/15 14:02:02;;;;;;;11.88;2.58;;;;;;;;;;4962755;28;20542;-87
2023/06/15 14:04:28;;;;;;;4.07;2.30;;;;;;;;;;4963119;28;20046;-90
2023/06/15 14:06:58;;;;;;;7.75;2.70;;;;;;;;;;4980497;28;20479;-89
2023/06/15 14:09:25;;;;;;;13.60;2.70;;;;;;;;;;4961815;28;21223;-89
2023/06/15 14:11:51;;;;;;;9.85;2.33;;;;;;;;;;4962308;28;20038;-87
2023/06/15 14:14:20;;;;;;;11.70;2.75;;;;;;;;;;4958478;28;20509;-88
2023/06/15 14:16:46;;;;;;;8.07;2.78;;;;;;;;;;4978366;28;20440;-87
2023/06/15 14:19:12;;;;;;;9.32;2.47;;;;;;;;;;4959907;28;20489;-87
2023/06/15 14:21:38;;;;;;;8.80;2.95;;;;;;;;;;4967056;28;20074;-87
2023/06/15 14:24:04;;;;;;;8.35;2.63;;;;;;;;;;4963652;28;20081;-89
2023/06/15 14:26:30;;;;;;;5.85;2.50;;;;;;;;;;5017175;28;20047;-87
2023/06/15 14:28:56;;;;;;;6.18;2.42;;;;;;;;;;4953364;28;20077;-88
2023/06/15 14:31:22;;;;;;;5.45;2.70;;;;;;;;;;4957805;28;20051;-86
2023/06/15 14:33:48;;;;;;;5.85;2.55;;;;;;;;;;4976448;28;20046;-87
2023/06/15 14:36:14;;;;;;;6.97;2.47;;;;;;;;;;4957729;28;20050;-87
2023/06/15 14:38:41;;;;;;;7.88;2.35;;;;;;;;;;4978018;28;20069;-87
2023/06/15 14:41:07;;;;;;;5.40;2.95;;;;;;;;;;4974878;28;20038;-87
2023/06/15 14:43:33;;;;;;;10.35;2.55;;;;;;;;;;4963771;28;20050;-89
2023/06/15 14:45:59;;;;;;;9.52;2.70;;;;;;;;;;4960151;28;20046;-88